createdAt,value
2018-10-01T00:00:48.403Z,9.20
2018-10-01T00:01:48.741Z,9.12
2018-10-01T00:02:48.260Z,9.06
2018-10-01T00:03:49.168Z,8.98
2018-10-01T00:04:49.525Z,8.90
2018-10-01T00:05:49.214Z,8.81
2018-10-01T00:06:49.909Z,8.76
2018-10-01T00:07:50.127Z,8.70
2018-10-01T00:08:49.929Z,8.64
2018-10-01T00:09:50.773Z,8.57
2018-10-01T00:10:51.034Z,8.51
2018-10-01T00:11:50.766Z,8.50
2018-10-01T00:12:51.644Z,8.40
2018-10-01T00:13:52.052Z,8.34
2018-10-01T00:14:51.448Z,8.28
2018-10-01T00:15:52.661Z,8.21
2018-10-01T00:16:53.011Z,8.15
2018-10-01T00:17:52.678Z,8.10
2018-10-01T00:18:53.625Z,8.05
2018-10-01T00:19:53.967Z,8.01
2018-10-01T00:20:53.748Z,7.95
2018-10-01T00:21:54.668Z,7.91
2018-10-01T00:22:54.985Z,7.87
2018-10-01T00:23:54.606Z,7.83
2018-10-01T00:24:55.328Z,7.80
2018-10-01T00:25:55.508Z,7.77
2018-10-01T00:26:55.148Z,7.74
2018-10-01T00:27:55.679Z,7.70
2018-10-01T00:28:56.006Z,7.67
2018-10-01T00:29:55.569Z,7.63
2018-10-01T00:30:56.203Z,7.60
2018-10-01T00:31:56.623Z,7.59
2018-10-01T00:32:56.025Z,7.57
2018-10-01T00:33:57.426Z,7.57
2018-10-01T00:34:57.474Z,7.57
2018-10-01T00:35:57.108Z,7.56
2018-10-01T00:36:57.867Z,7.59
2018-10-01T00:37:58.151Z,7.58
2018-10-01T00:38:57.598Z,7.58
2018-10-01T00:39:59.150Z,7.58
2018-10-01T00:40:58.827Z,7.59
2018-10-01T00:41:58.396Z,7.61
2018-10-01T00:42:59.207Z,7.61
2018-10-01T00:43:59.291Z,7.63
2018-10-01T00:44:58.874Z,7.63
2018-10-01T00:45:59.658Z,7.63
2018-10-01T00:46:59.914Z,7.64
2018-10-01T00:47:59.462Z,7.64
2018-10-01T00:49:00.188Z,7.64
2018-10-01T00:50:00.339Z,7.63
2018-10-01T00:50:59.825Z,7.63
2018-10-01T00:52:01.383Z,7.64
2018-10-01T00:53:01.037Z,7.64
2018-10-01T00:54:00.367Z,7.64
2018-10-01T00:55:01.770Z,7.64
2018-10-01T00:56:02.143Z,7.64
2018-10-01T00:57:01.709Z,7.64
2018-10-01T00:58:02.631Z,7.63
2018-10-01T00:59:03.021Z,7.64
2018-10-01T01:00:02.753Z,7.64
2018-10-01T01:01:03.717Z,7.64
2018-10-01T01:02:04.027Z,7.67
2018-10-01T01:03:03.504Z,7.69
2018-10-01T01:04:04.599Z,7.70
2018-10-01T01:05:04.504Z,7.71
2018-10-01T01:06:04.882Z,7.73
2018-10-01T01:07:05.415Z,7.75
2018-10-01T01:08:05.296Z,7.77
2018-10-01T01:09:05.557Z,7.79
2018-10-01T01:10:05.891Z,7.82
2018-10-01T01:11:05.798Z,7.82
2018-10-01T01:12:06.164Z,7.86
2018-10-01T01:13:06.737Z,7.89
2018-10-01T01:14:07.396Z,7.90
2018-10-01T01:15:07.032Z,7.91
2018-10-01T01:16:07.579Z,7.93
2018-10-01T01:17:07.487Z,7.94
2018-10-01T01:18:07.655Z,7.94
2018-10-01T01:19:08.135Z,7.93
2018-10-01T01:20:08.375Z,7.93
2018-10-01T01:21:08.761Z,7.93
2018-10-01T01:22:09.290Z,7.93
2018-10-01T01:23:09.296Z,7.93
2018-10-01T01:24:09.087Z,7.96
2018-10-01T01:25:09.416Z,7.97
2018-10-01T01:26:09.921Z,7.99
2018-10-01T01:27:09.976Z,8.00
2018-10-01T01:28:10.225Z,8.00
2018-10-01T01:29:10.616Z,8.03
2018-10-01T01:30:10.676Z,8.04
2018-10-01T01:31:11.177Z,8.04
2018-10-01T01:32:11.601Z,8.05
2018-10-01T01:33:11.798Z,8.07
2018-10-01T01:34:12.090Z,8.10
2018-10-01T01:35:12.540Z,8.11
2018-10-01T01:36:12.697Z,8.12
2018-10-01T01:37:13.040Z,8.12
2018-10-01T01:38:13.148Z,8.14
2018-10-01T01:39:13.168Z,8.14
2018-10-01T01:40:14.073Z,8.15
2018-10-01T01:41:13.911Z,8.15
2018-10-01T01:42:14.174Z,8.15
2018-10-01T01:43:14.541Z,8.16
2018-10-01T01:44:15.057Z,8.16
2018-10-01T01:45:15.033Z,8.16
2018-10-01T01:46:15.294Z,8.14
2018-10-01T01:47:15.463Z,8.15
2018-10-01T01:48:15.622Z,8.15
2018-10-01T01:49:16.029Z,8.15
2018-10-01T01:50:16.598Z,8.16
2018-10-01T01:51:16.299Z,8.15
2018-10-01T01:52:16.691Z,8.16
2018-10-01T01:53:16.343Z,8.17
2018-10-01T01:54:17.043Z,8.17
2018-10-01T01:55:17.610Z,8.18
2018-10-01T01:56:17.185Z,8.19
2018-10-01T01:57:17.566Z,8.19
2018-10-01T01:58:17.783Z,8.21
2018-10-01T01:59:17.304Z,8.21
2018-10-01T02:00:18.207Z,8.21
2018-10-01T02:01:18.559Z,8.21
2018-10-01T02:02:18.278Z,8.22
2018-10-01T02:03:19.174Z,8.22
2018-10-01T02:05:19.156Z,8.23
2018-10-01T02:06:20.100Z,8.22
2018-10-01T02:07:20.440Z,8.22
2018-10-01T02:08:20.176Z,8.22
2018-10-01T02:09:21.217Z,8.21
2018-10-01T02:10:21.269Z,8.20
2018-10-01T02:11:20.558Z,8.19
2018-10-01T02:12:21.513Z,8.19
2018-10-01T02:13:21.956Z,8.17
2018-10-01T02:15:22.442Z,8.14
2018-10-01T02:16:22.788Z,8.09
2018-10-01T02:17:22.569Z,8.06
2018-10-01T02:18:23.515Z,8.03
2018-10-01T02:19:23.626Z,8.00
2018-10-01T02:20:23.032Z,7.98
2018-10-01T02:21:23.968Z,7.95
2018-10-01T02:22:24.457Z,7.92
2018-10-01T02:23:24.116Z,7.91
2018-10-01T02:24:25.164Z,7.91
2018-10-01T02:25:25.222Z,7.89
2018-10-01T02:26:24.202Z,7.86
2018-10-01T02:27:25.598Z,7.85
2018-10-01T02:28:25.914Z,7.85
2018-10-01T02:29:25.554Z,7.87
2018-10-01T02:30:26.427Z,7.92
2018-10-01T02:31:26.752Z,7.96
2018-10-01T02:32:26.377Z,7.99
2018-10-01T02:33:27.231Z,8.02
2018-10-01T02:34:27.614Z,8.03
2018-10-01T02:35:27.257Z,8.05
2018-10-01T02:36:28.252Z,8.06
2018-10-01T02:37:28.638Z,8.05
2018-10-01T02:38:28.435Z,8.03
2018-10-01T02:39:29.885Z,8.02
2018-10-01T02:40:29.691Z,8.00
2018-10-01T02:41:29.440Z,8.00
2018-10-01T02:42:30.172Z,8.03
2018-10-01T02:43:30.519Z,8.07
2018-10-01T02:44:29.975Z,8.10
2018-10-01T02:45:31.301Z,8.12
2018-10-01T02:48:37.783Z,8.16
2018-10-01T02:49:38.162Z,8.19
2018-10-01T02:50:37.799Z,8.24
2018-10-01T02:51:38.870Z,8.25
2018-10-01T02:52:38.878Z,8.26
2018-10-01T02:53:38.244Z,8.27
2018-10-01T02:54:39.489Z,8.29
2018-10-01T02:55:39.439Z,8.30
2018-10-01T02:56:39.089Z,8.31
2018-10-01T02:57:40.099Z,8.32
2018-10-01T02:58:40.272Z,8.34
2018-10-01T02:59:39.298Z,8.36
2018-10-01T03:00:40.239Z,8.38
2018-10-01T03:01:40.714Z,8.43
2018-10-01T03:02:40.066Z,8.47
2018-10-01T03:03:41.502Z,8.49
2018-10-01T03:04:41.560Z,8.53
2018-10-01T03:05:40.897Z,8.55
2018-10-01T03:06:42.277Z,8.59
2018-10-01T03:07:42.622Z,8.63
2018-10-01T03:08:42.238Z,8.67
2018-10-01T03:09:43.453Z,8.72
2018-10-01T03:10:43.293Z,8.77
2018-10-01T03:11:42.867Z,8.79
2018-10-01T03:12:44.242Z,8.81
2018-10-01T03:13:44.744Z,8.83
2018-10-01T03:14:44.304Z,8.81
2018-10-01T03:15:44.929Z,8.81
2018-10-01T03:16:45.187Z,8.81
2018-10-01T03:17:44.649Z,8.81
2018-10-01T03:18:45.833Z,8.79
2018-10-01T03:19:46.043Z,8.81
2018-10-01T03:20:45.392Z,8.82
2018-10-01T03:21:46.583Z,8.82
2018-10-01T03:22:47.010Z,8.82
2018-10-01T03:23:46.365Z,8.84
2018-10-01T03:24:47.555Z,8.86
2018-10-01T03:25:47.945Z,8.86
2018-10-01T03:26:47.345Z,8.88
2018-10-01T03:27:48.534Z,8.88
2018-10-01T03:28:48.875Z,8.89
2018-10-01T03:30:49.228Z,8.90
2018-10-01T03:31:49.661Z,8.93
2018-10-01T03:32:49.366Z,8.97
2018-10-01T03:33:50.241Z,9.00
2018-10-01T03:34:50.785Z,9.04
2018-10-01T03:35:50.063Z,9.07
2018-10-01T03:36:50.834Z,9.12
2018-10-01T03:37:51.552Z,9.15
2018-10-01T03:38:50.863Z,9.17
2018-10-01T03:39:51.693Z,9.17
2018-10-01T03:40:52.118Z,9.19
2018-10-01T03:41:51.792Z,9.21
2018-10-01T03:42:52.635Z,9.21
2018-10-01T03:43:52.924Z,9.18
2018-10-01T03:44:52.528Z,9.17
2018-10-01T03:45:53.381Z,9.15
2018-10-01T03:46:53.756Z,9.15
2018-10-01T03:47:53.390Z,9.16
2018-10-01T03:48:54.174Z,9.17
2018-10-01T03:49:54.672Z,9.19
2018-10-01T03:50:54.109Z,9.22
2018-10-01T03:51:55.180Z,9.23
2018-10-01T03:52:55.638Z,9.26
2018-10-01T03:53:54.992Z,9.26
2018-10-01T03:54:56.251Z,9.27
2018-10-01T03:55:56.667Z,9.27
2018-10-01T03:56:56.292Z,9.27
2018-10-01T03:57:57.137Z,9.26
2018-10-01T03:58:57.297Z,9.27
2018-10-01T03:59:56.833Z,9.26
2018-10-01T04:00:57.625Z,9.24
2018-10-01T04:01:57.756Z,9.24
2018-10-01T04:02:57.273Z,9.25
2018-10-01T04:03:58.694Z,9.24
2018-10-01T04:04:58.852Z,9.23
2018-10-01T04:05:58.168Z,9.23
2018-10-01T04:06:59.576Z,9.23
2018-10-01T04:07:59.665Z,9.24
2018-10-01T04:08:59.265Z,9.24
2018-10-01T04:10:00.411Z,9.24
2018-10-01T04:11:00.419Z,9.25
2018-10-01T04:11:59.926Z,9.26
2018-10-01T04:13:00.852Z,9.24
2018-10-01T04:14:01.004Z,9.24
2018-10-01T04:15:00.316Z,9.23
2018-10-01T04:16:01.871Z,9.23
2018-10-01T04:17:01.510Z,9.22
2018-10-01T04:18:01.041Z,9.22
2018-10-01T04:19:01.786Z,9.23
2018-10-01T04:20:02.173Z,9.22
2018-10-01T04:21:01.119Z,9.21
2018-10-01T04:22:02.594Z,9.22
2018-10-01T04:23:02.909Z,9.23
2018-10-01T04:24:02.540Z,9.23
2018-10-01T04:25:03.474Z,9.23
2018-10-01T04:26:03.891Z,9.22
2018-10-01T04:27:03.731Z,9.21
2018-10-01T04:28:04.276Z,9.20
2018-10-01T04:29:04.392Z,9.21
2018-10-01T04:30:04.073Z,9.20
2018-10-01T04:31:04.565Z,9.19
2018-10-01T04:32:04.706Z,9.17
2018-10-01T04:33:04.431Z,9.16
2018-10-01T04:34:05.107Z,9.16
2018-10-01T04:35:05.058Z,9.15
2018-10-01T04:36:04.872Z,9.15
2018-10-01T04:37:05.386Z,9.16
2018-10-01T04:38:05.482Z,9.18
2018-10-01T04:39:05.065Z,9.18
2018-10-01T04:40:05.729Z,9.21
2018-10-01T04:41:06.057Z,9.25
2018-10-01T04:42:06.284Z,9.25
2018-10-01T04:43:06.703Z,9.27
2018-10-01T04:44:07.256Z,9.27
2018-10-01T04:45:07.418Z,9.28
2018-10-01T04:46:07.889Z,9.29
2018-10-01T04:47:08.261Z,9.31
2018-10-01T04:48:08.684Z,9.33
2018-10-01T04:49:08.976Z,9.35
2018-10-01T04:50:09.574Z,9.37
2018-10-01T04:51:09.931Z,9.40
2018-10-01T04:52:10.413Z,9.43
2018-10-01T04:53:10.682Z,9.46
2018-10-01T04:54:10.853Z,9.49
2018-10-01T04:55:11.213Z,9.55
2018-10-01T04:56:11.574Z,9.55
2018-10-01T04:57:12.073Z,9.57
2018-10-01T04:58:12.188Z,9.60
2018-10-01T04:59:12.455Z,9.66
2018-10-01T05:00:12.517Z,9.71
2018-10-01T05:01:12.831Z,9.73
2018-10-01T05:02:13.297Z,9.76
2018-10-01T05:03:13.483Z,9.78
2018-10-01T05:04:14.318Z,9.82
2018-10-01T05:05:13.712Z,9.85
2018-10-01T05:06:14.327Z,9.86
2018-10-01T05:07:15.029Z,9.89
2018-10-01T05:08:14.699Z,9.91
2018-10-01T05:09:15.310Z,9.94
2018-10-01T05:10:15.607Z,9.96
2018-10-01T05:11:15.802Z,9.97
2018-10-01T05:12:16.231Z,10.02
2018-10-01T05:13:16.515Z,10.03
2018-10-01T05:14:16.789Z,10.05
2018-10-01T05:15:17.018Z,10.09
2018-10-01T05:16:17.241Z,10.11
2018-10-01T05:17:16.895Z,10.14
2018-10-01T05:19:17.868Z,10.16
2018-10-01T05:20:18.431Z,10.23
2018-10-01T05:21:18.222Z,10.26
2018-10-01T05:22:18.706Z,10.27
2018-10-01T05:23:18.360Z,10.29
2018-10-01T05:24:19.171Z,10.32
2018-10-01T05:25:19.731Z,10.34
2018-10-01T05:26:19.073Z,10.36
2018-10-01T05:27:19.913Z,10.37
2018-10-01T05:28:20.303Z,10.39
2018-10-01T05:29:20.110Z,10.42
2018-10-01T05:30:21.068Z,10.43
2018-10-01T05:31:21.547Z,10.46
2018-10-01T05:32:21.233Z,10.47
2018-10-01T05:33:22.279Z,10.49
2018-10-01T05:34:22.125Z,10.49
2018-10-01T05:35:21.855Z,10.51
2018-10-01T05:36:22.736Z,10.53
2018-10-01T05:37:22.973Z,10.53
2018-10-01T05:38:22.647Z,10.55
2018-10-01T05:39:23.688Z,10.56
2018-10-01T05:40:24.206Z,10.57
2018-10-01T05:41:23.444Z,10.58
2018-10-01T05:42:24.420Z,10.59
2018-10-01T05:43:24.932Z,10.61
2018-10-01T05:44:24.094Z,10.61
2018-10-01T05:45:25.222Z,10.62
2018-10-01T05:46:25.264Z,10.63
2018-10-01T05:47:24.673Z,10.63
2018-10-01T05:48:26.047Z,10.64
2018-10-01T05:49:26.472Z,10.64
2018-10-01T05:50:26.042Z,10.65
2018-10-01T05:51:27.012Z,10.67
2018-10-01T05:52:27.493Z,10.67
2018-10-01T05:53:27.159Z,10.69
2018-10-01T05:54:28.021Z,10.70
2018-10-01T05:55:29.040Z,10.71
2018-10-01T05:56:27.405Z,10.71
2018-10-01T05:57:28.666Z,10.73
2018-10-01T05:58:29.117Z,10.75
2018-10-01T05:59:28.757Z,10.77
2018-10-01T06:00:29.951Z,10.78
2018-10-01T06:01:29.736Z,10.79
2018-10-01T06:02:29.199Z,10.80
2018-10-01T06:04:30.453Z,10.82
2018-10-01T06:05:30.042Z,10.87
2018-10-01T06:06:30.996Z,10.88
2018-10-01T06:07:31.373Z,10.89
2018-10-01T06:08:30.745Z,10.95
2018-10-01T06:09:32.113Z,10.95
2018-10-01T06:10:32.462Z,10.98
2018-10-01T06:11:31.822Z,11.00
2018-10-01T06:12:33.239Z,11.02
2018-10-01T06:13:33.803Z,11.06
2018-10-01T06:14:32.863Z,11.08
2018-10-01T06:15:33.811Z,11.10
2018-10-01T06:16:34.410Z,11.12
2018-10-01T06:17:33.607Z,11.15
2018-10-01T06:18:34.599Z,11.15
2018-10-01T06:19:35.058Z,11.16
2018-10-01T06:20:34.802Z,11.22
2018-10-01T06:21:35.677Z,11.26
2018-10-01T06:22:36.134Z,11.26
2018-10-01T06:23:35.874Z,11.30
2018-10-01T06:24:37.024Z,11.34
2018-10-01T06:25:37.030Z,11.35
2018-10-01T06:26:36.739Z,11.40
2018-10-01T06:27:37.714Z,11.41
2018-10-01T06:28:38.073Z,11.50
2018-10-01T06:29:37.720Z,11.55
2018-10-01T06:30:38.757Z,11.59
2018-10-01T06:31:38.645Z,11.60
2018-10-01T06:32:38.274Z,11.67
2018-10-01T06:33:39.279Z,11.70
2018-10-01T06:34:39.736Z,11.74
2018-10-01T06:35:39.476Z,11.79
2018-10-01T06:36:40.490Z,11.81
2018-10-01T06:37:40.523Z,11.82
2018-10-01T06:38:39.853Z,11.88
2018-10-01T06:39:40.762Z,11.92
2018-10-01T06:40:41.138Z,11.93
2018-10-01T06:41:41.059Z,12.00
2018-10-01T06:42:41.889Z,12.04
2018-10-01T06:43:42.195Z,12.07
2018-10-01T06:44:41.515Z,12.11
2018-10-01T06:45:42.855Z,12.14
2018-10-01T06:46:43.199Z,12.15
2018-10-01T06:47:42.752Z,12.17
2018-10-01T06:49:43.875Z,12.25
2018-10-01T06:50:43.439Z,12.27
2018-10-01T06:51:44.197Z,12.39
2018-10-01T06:52:44.545Z,12.40
2018-10-01T06:53:44.069Z,12.47
2018-10-01T06:54:44.665Z,12.51
2018-10-01T06:55:45.002Z,12.51
2018-10-01T06:56:44.465Z,12.57
2018-10-01T06:57:45.718Z,12.60
2018-10-01T06:58:46.231Z,12.63
2018-10-01T06:59:45.377Z,12.65
2018-10-01T07:00:46.321Z,12.70
2018-10-01T07:01:46.870Z,12.74
2018-10-01T07:02:46.029Z,12.75
2018-10-01T07:03:46.822Z,12.77
2018-10-01T07:04:47.217Z,12.80
2018-10-01T07:05:46.627Z,12.91
2018-10-01T07:06:47.718Z,12.92
2018-10-01T07:07:47.892Z,12.99
2018-10-01T07:08:47.553Z,13.03
2018-10-01T07:09:48.308Z,13.11
2018-10-01T07:10:48.622Z,13.16
2018-10-01T07:11:48.356Z,13.20
2018-10-01T07:12:49.413Z,13.23
2018-10-01T07:14:48.591Z,13.26
2018-10-01T07:15:49.434Z,13.32
2018-10-01T07:16:50.157Z,13.37
2018-10-01T07:17:49.390Z,13.40
2018-10-01T07:18:50.323Z,13.44
2018-10-01T07:19:50.556Z,13.46
2018-10-01T07:20:50.305Z,13.49
2018-10-01T07:21:51.072Z,13.50
2018-10-01T07:22:51.452Z,13.50
2018-10-01T07:23:51.130Z,13.53
2018-10-01T07:24:51.963Z,13.55
2018-10-01T07:25:52.473Z,13.57
2018-10-01T07:26:52.119Z,13.61
2018-10-01T07:27:53.124Z,13.64
2018-10-01T07:28:53.449Z,13.66
2018-10-01T07:29:53.087Z,13.67
2018-10-01T07:30:54.036Z,13.68
2018-10-01T07:31:54.291Z,13.69
2018-10-01T07:32:54.009Z,13.70
2018-10-01T07:33:54.833Z,13.70
2018-10-01T07:34:55.301Z,13.72
2018-10-01T07:35:54.670Z,13.73
2018-10-01T07:36:55.716Z,13.73
2018-10-01T07:37:56.354Z,13.76
2018-10-01T07:38:55.366Z,13.77
2018-10-01T07:39:56.561Z,13.79
2018-10-01T07:40:56.720Z,13.80
2018-10-01T07:41:56.658Z,13.82
2018-10-01T07:42:57.597Z,13.82
2018-10-01T07:43:57.862Z,13.79
2018-10-01T07:44:57.618Z,13.79
2018-10-01T07:45:58.549Z,13.75
2018-10-01T07:46:58.358Z,13.75
2018-10-01T07:47:57.941Z,13.75
2018-10-01T07:48:58.800Z,13.76
2018-10-01T07:49:58.741Z,13.73
2018-10-01T07:50:58.818Z,13.72
2018-10-01T07:51:59.879Z,13.69
2018-10-01T07:52:59.970Z,13.70
2018-10-01T07:53:59.518Z,13.69
2018-10-01T07:55:00.308Z,13.67
2018-10-01T07:56:00.409Z,13.68
2018-10-01T07:57:00.148Z,13.67
2018-10-01T07:58:01.373Z,13.69
2018-10-01T07:59:01.211Z,13.69
2018-10-01T08:00:00.965Z,13.72
2018-10-01T08:01:01.530Z,13.74
2018-10-01T08:02:01.902Z,13.78
2018-10-01T08:03:01.476Z,13.81
2018-10-01T08:04:02.467Z,13.84
2018-10-01T08:05:02.303Z,13.87
2018-10-01T08:06:02.062Z,13.89
2018-10-01T08:07:03.288Z,13.89
2018-10-01T08:08:03.046Z,13.81
2018-10-01T08:09:02.918Z,13.82
2018-10-01T08:10:04.131Z,13.79
2018-10-01T08:11:04.515Z,13.77
2018-10-01T08:12:04.206Z,13.79
2018-10-01T08:13:04.744Z,13.78
2018-10-01T08:14:04.542Z,13.74
2018-10-01T08:15:04.799Z,13.75
2018-10-01T08:16:05.436Z,13.68
2018-10-01T08:17:05.559Z,13.74
2018-10-01T08:18:05.926Z,13.72
2018-10-01T08:19:06.354Z,13.73
2018-10-01T08:20:06.814Z,13.76
2018-10-01T08:21:06.992Z,13.79
2018-10-01T08:22:07.345Z,13.67
2018-10-01T08:23:07.768Z,13.75
2018-10-01T08:24:08.114Z,13.78
2018-10-01T08:25:08.576Z,13.80
2018-10-01T08:26:09.127Z,13.83
2018-10-01T08:27:09.320Z,13.90
2018-10-01T08:28:09.755Z,13.94
2018-10-01T08:29:10.230Z,13.97
2018-10-01T08:30:10.378Z,14.00
2018-10-01T08:31:10.946Z,14.02
2018-10-01T08:32:10.880Z,14.05
2018-10-01T08:33:13.861Z,14.06
2018-10-01T08:34:11.153Z,14.06
2018-10-01T08:35:11.691Z,14.05
2018-10-01T08:36:11.982Z,14.08
2018-10-01T08:37:12.284Z,14.10
2018-10-01T08:38:12.780Z,14.14
2018-10-01T08:39:14.115Z,14.15
2018-10-01T08:40:13.584Z,14.23
2018-10-01T08:41:13.342Z,14.24
2018-10-01T08:42:13.466Z,14.23
2018-10-01T08:43:13.508Z,14.26
2018-10-01T08:44:13.886Z,14.27
2018-10-01T08:45:14.124Z,14.41
2018-10-01T08:46:14.319Z,14.41
2018-10-01T08:47:14.888Z,14.52
2018-10-01T08:48:14.517Z,14.55
2018-10-01T08:49:14.947Z,14.72
2018-10-01T08:50:15.029Z,14.64
2018-10-01T08:51:15.178Z,14.67
2018-10-01T08:52:15.388Z,14.81
2018-10-01T08:53:15.099Z,14.95
2018-10-01T08:54:15.690Z,14.99
2018-10-01T08:55:16.235Z,14.98
2018-10-01T08:56:15.973Z,15.16
2018-10-01T08:57:16.627Z,15.20
2018-10-01T08:58:16.878Z,15.37
2018-10-01T08:59:16.829Z,15.79
2018-10-01T09:00:17.529Z,16.15
2018-10-01T09:01:17.901Z,16.33
2018-10-01T09:02:17.467Z,16.54
2018-10-01T09:03:18.101Z,16.80
2018-10-01T09:04:18.399Z,16.97
2018-10-01T09:05:18.154Z,17.23
2018-10-01T09:06:18.792Z,17.45
2018-10-01T09:07:19.411Z,17.52
2018-10-01T09:08:18.593Z,17.59
2018-10-01T09:09:19.650Z,17.66
2018-10-01T09:10:19.574Z,17.77
2018-10-01T09:11:19.375Z,17.77
2018-10-01T09:12:20.136Z,17.81
2018-10-01T09:13:20.488Z,17.89
2018-10-01T09:14:20.248Z,18.03
2018-10-01T09:15:21.217Z,18.17
2018-10-01T09:16:21.716Z,18.31
2018-10-01T09:17:21.058Z,18.57
2018-10-01T09:18:21.891Z,18.90
2018-10-01T09:19:22.344Z,19.17
2018-10-01T09:20:22.165Z,19.48
2018-10-01T09:21:23.084Z,19.62
2018-10-01T09:22:23.553Z,19.40
2018-10-01T09:23:22.864Z,19.07
2018-10-01T09:24:23.768Z,19.02
2018-10-01T09:25:24.149Z,19.45
2018-10-01T09:26:23.800Z,19.71
2018-10-01T09:27:24.739Z,19.95
2018-10-01T09:28:25.224Z,19.37
2018-10-01T09:29:24.458Z,19.05
2018-10-01T09:30:25.579Z,18.88
2018-10-01T09:31:25.521Z,18.66
2018-10-01T09:32:25.409Z,18.45
2018-10-01T09:33:26.309Z,18.28
2018-10-01T09:34:26.301Z,18.15
2018-10-01T09:35:25.914Z,17.93
2018-10-01T09:36:26.651Z,17.79
2018-10-01T09:37:27.294Z,17.58
2018-10-01T09:38:26.268Z,17.48
2018-10-01T09:39:27.630Z,17.24
2018-10-01T09:40:28.063Z,17.12
2018-10-01T09:41:27.643Z,17.09
2018-10-01T09:42:28.477Z,16.83
2018-10-01T09:43:28.779Z,16.79
2018-10-01T09:44:28.356Z,16.71
2018-10-01T09:45:29.497Z,16.63
2018-10-01T09:46:29.503Z,16.62
2018-10-01T09:47:29.061Z,16.61
2018-10-01T09:48:29.829Z,16.54
2018-10-01T09:49:30.137Z,16.47
2018-10-01T09:50:29.587Z,16.37
2018-10-01T09:51:30.799Z,16.31
2018-10-01T09:52:31.262Z,16.26
2018-10-01T09:53:30.835Z,16.25
2018-10-01T09:54:31.611Z,16.22
2018-10-01T09:55:31.857Z,16.21
2018-10-01T09:56:31.484Z,16.17
2018-10-01T09:57:32.401Z,16.15
2018-10-01T09:58:32.825Z,16.15
2018-10-01T09:59:32.233Z,16.16
2018-10-01T10:00:33.750Z,16.12
2018-10-01T10:01:34.048Z,16.13
2018-10-01T10:02:33.752Z,16.14
2018-10-01T10:03:34.651Z,16.14
2018-10-01T10:04:35.126Z,16.18
2018-10-01T10:05:34.761Z,16.20
2018-10-01T10:06:35.666Z,16.23
2018-10-01T10:07:35.956Z,16.28
2018-10-01T10:08:35.744Z,16.33
2018-10-01T10:09:36.605Z,16.36
2018-10-01T10:10:37.318Z,16.30
2018-10-01T10:11:36.399Z,16.25
2018-10-01T10:12:37.492Z,16.27
2018-10-01T10:13:37.971Z,16.24
2018-10-01T10:14:37.671Z,16.21
2018-10-01T10:15:38.618Z,16.19
2018-10-01T10:16:39.185Z,16.18
2018-10-01T10:17:38.271Z,16.15
2018-10-01T10:18:39.358Z,16.13
2018-10-01T10:19:39.307Z,16.06
2018-10-01T10:20:39.086Z,16.03
2018-10-01T10:21:40.201Z,16.04
2018-10-01T10:22:40.274Z,16.05
2018-10-01T10:23:39.881Z,16.03
2018-10-01T10:24:40.662Z,15.93
2018-10-01T10:25:40.998Z,15.79
2018-10-01T10:26:40.600Z,15.88
2018-10-01T10:27:41.610Z,15.84
2018-10-01T10:28:41.964Z,15.89
2018-10-01T10:29:41.609Z,15.93
2018-10-01T10:30:42.422Z,15.97
2018-10-01T10:31:42.874Z,16.04
2018-10-01T10:32:42.493Z,16.07
2018-10-01T10:33:43.292Z,16.12
2018-10-01T10:34:43.700Z,16.19
2018-10-01T10:35:43.000Z,16.26
2018-10-01T10:36:44.225Z,16.35
2018-10-01T10:37:44.647Z,16.48
2018-10-01T10:38:44.049Z,16.69
2018-10-01T10:39:45.292Z,16.76
2018-10-01T10:40:45.567Z,16.87
2018-10-01T10:41:44.927Z,17.01
2018-10-01T10:42:45.926Z,17.18
2018-10-01T10:43:46.316Z,17.29
2018-10-01T10:44:45.734Z,17.26
2018-10-01T10:45:46.921Z,17.36
2018-10-01T10:46:47.521Z,17.50
2018-10-01T10:47:46.652Z,17.63
2018-10-01T10:48:47.331Z,17.63
2018-10-01T10:49:47.747Z,17.52
2018-10-01T10:50:47.276Z,17.51
2018-10-01T10:51:47.862Z,17.49
2018-10-01T10:52:48.128Z,17.48
2018-10-01T10:53:47.753Z,17.42
2018-10-01T10:54:48.452Z,17.37
2018-10-01T10:55:48.907Z,17.30
2018-10-01T10:56:48.643Z,17.24
2018-10-01T10:57:49.372Z,17.22
2018-10-01T10:58:49.998Z,17.27
2018-10-01T10:59:49.209Z,17.30
2018-10-01T11:00:49.955Z,17.53
2018-10-01T11:01:50.466Z,17.71
2018-10-01T11:02:49.688Z,17.76
2018-10-01T11:03:50.627Z,17.85
2018-10-01T11:04:51.299Z,17.87
2018-10-01T11:05:50.562Z,18.01
2018-10-01T11:06:51.518Z,18.12
2018-10-01T11:07:51.982Z,18.30
2018-10-01T11:08:51.422Z,18.33
2018-10-01T11:09:52.377Z,18.60
2018-10-01T11:10:52.602Z,18.48
2018-10-01T11:11:52.292Z,18.62
2018-10-01T11:12:53.207Z,19.05
2018-10-01T11:13:53.712Z,19.08
2018-10-01T11:14:53.409Z,19.40
2018-10-01T11:15:54.268Z,19.75
2018-10-01T11:16:54.739Z,20.30
2018-10-01T11:17:53.952Z,20.28
2018-10-01T11:18:54.869Z,19.62
2018-10-01T11:19:55.007Z,19.41
2018-10-01T11:20:54.742Z,20.43
2018-10-01T11:21:55.453Z,20.72
2018-10-01T11:22:55.629Z,20.95
2018-10-01T11:23:55.175Z,21.20
2018-10-01T11:24:55.854Z,21.43
2018-10-01T11:25:56.189Z,21.71
2018-10-01T11:26:55.568Z,21.83
2018-10-01T11:27:56.765Z,22.22
2018-10-01T11:28:57.026Z,22.09
2018-10-01T11:29:56.567Z,21.57
2018-10-01T11:30:57.362Z,21.44
2018-10-01T11:31:57.579Z,21.03
2018-10-01T11:32:57.051Z,20.92
2018-10-01T11:33:57.937Z,21.69
2018-10-01T11:34:58.437Z,22.39
2018-10-01T11:35:57.625Z,22.47
2018-10-01T11:36:59.308Z,21.56
2018-10-01T11:37:59.015Z,21.03
2018-10-01T11:38:58.610Z,20.58
2018-10-01T11:39:59.409Z,20.42
2018-10-01T11:40:59.429Z,20.07
2018-10-01T11:41:59.007Z,19.72
2018-10-01T11:42:59.825Z,19.56
2018-10-01T11:43:59.991Z,19.54
2018-10-01T11:44:59.547Z,19.77
2018-10-01T11:46:00.641Z,20.42
2018-10-01T11:47:00.333Z,19.90
2018-10-01T11:47:59.883Z,20.28
2018-10-01T11:49:00.785Z,20.81
2018-10-01T11:50:00.891Z,21.01
2018-10-01T11:51:00.521Z,21.41
2018-10-01T11:52:01.340Z,21.83
2018-10-01T11:53:01.154Z,21.42
2018-10-01T11:54:00.732Z,21.01
2018-10-01T11:55:01.974Z,21.57
2018-10-01T11:56:02.359Z,22.11
2018-10-01T11:57:01.951Z,22.54
2018-10-01T11:58:02.788Z,22.71
2018-10-01T11:59:02.920Z,22.23
2018-10-01T12:00:02.492Z,21.78
2018-10-01T12:01:03.417Z,21.90
2018-10-01T12:02:04.050Z,21.41
2018-10-01T12:03:03.678Z,20.99
2018-10-01T12:04:04.279Z,20.75
2018-10-01T12:05:04.076Z,20.03
2018-10-01T12:06:03.969Z,20.07
2018-10-01T12:07:04.241Z,20.01
2018-10-01T12:08:04.576Z,19.74
2018-10-01T12:09:04.815Z,20.62
2018-10-01T12:10:05.099Z,20.61
2018-10-01T12:11:05.401Z,20.88
2018-10-01T12:12:05.586Z,20.42
2018-10-01T12:13:06.116Z,20.31
2018-10-01T12:14:05.988Z,20.47
2018-10-01T12:15:06.155Z,21.03
2018-10-01T12:16:06.631Z,21.41
2018-10-01T12:17:07.067Z,21.76
2018-10-01T12:18:06.637Z,21.98
2018-10-01T12:19:07.041Z,21.97
2018-10-01T12:20:07.409Z,22.00
2018-10-01T12:21:07.767Z,22.29
2018-10-01T12:22:08.251Z,22.26
2018-10-01T12:23:08.600Z,22.55
2018-10-01T12:24:08.981Z,22.46
2018-10-01T12:25:09.481Z,22.43
2018-10-01T12:26:09.876Z,22.58
2018-10-01T12:27:10.286Z,22.79
2018-10-01T12:28:10.334Z,22.94
2018-10-01T12:29:10.970Z,22.88
2018-10-01T12:30:10.448Z,23.10
2018-10-01T12:31:10.900Z,23.24
2018-10-01T12:32:11.221Z,23.02
2018-10-01T12:33:11.405Z,23.20
2018-10-01T12:34:11.735Z,22.97
2018-10-01T12:35:12.178Z,23.32
2018-10-01T12:36:12.148Z,23.17
2018-10-01T12:37:12.523Z,23.45
2018-10-01T12:39:13.417Z,23.54
2018-10-01T12:40:13.173Z,23.37
2018-10-01T12:41:13.688Z,23.50
2018-10-01T12:42:13.530Z,23.30
2018-10-01T12:43:14.365Z,22.88
2018-10-01T12:44:14.203Z,22.47
2018-10-01T12:45:14.524Z,22.15
2018-10-01T12:46:14.894Z,21.60
2018-10-01T12:47:14.741Z,21.74
2018-10-01T12:48:15.252Z,22.35
2018-10-01T12:49:16.157Z,21.67
2018-10-01T12:50:16.552Z,21.30
2018-10-01T12:51:16.676Z,21.50
2018-10-01T12:52:16.994Z,22.02
2018-10-01T12:53:16.615Z,21.49
2018-10-01T12:54:17.355Z,21.04
2018-10-01T12:55:17.676Z,20.88
2018-10-01T12:56:18.147Z,21.04
2018-10-01T12:57:18.723Z,20.70
2018-10-01T12:58:18.760Z,20.36
2018-10-01T12:59:19.077Z,20.85
2018-10-01T13:00:19.666Z,21.22
2018-10-01T13:01:19.673Z,20.45
2018-10-01T13:02:19.417Z,20.54
2018-10-01T13:03:19.702Z,20.90
2018-10-01T13:04:20.159Z,21.28
2018-10-01T13:05:19.883Z,21.16
2018-10-01T13:06:20.981Z,21.42
2018-10-01T13:07:21.125Z,21.41
2018-10-01T13:08:20.827Z,21.60
2018-10-01T13:09:21.770Z,21.75
2018-10-01T13:10:22.303Z,21.98
2018-10-01T13:11:22.244Z,22.03
2018-10-01T13:12:22.606Z,21.77
2018-10-01T13:13:22.890Z,22.10
2018-10-01T13:14:22.547Z,22.20
2018-10-01T13:15:23.224Z,22.29
2018-10-01T13:16:23.725Z,22.20